Berltsum, Netherlands
Current Conditions -  °F | °C
As of 2:44 AM on Tuesday 25 Nov 2014 (Local Time) from EHLW Reporting Station
Haze Haze  
Wind Chill: 36°   Ceiling: 23000
Heat Index: 36°   Visibility: 2.5mi
Dew Point: 36°   Wind: 3mph
Humidity: 100%   Direction: 190°S
Pressure: 30.3"   Gusts: NA
Location:  53.24°N, 5.65°E
Report Text: EHLW 250144Z AUTO 19003KT 4100 BR BKN230 02/02 Q1026 GRN
Loading
Personal Weather Stations






























Interactive Weather Map New forecast layout! Learn more

10-Day Weather Forecast

Advertisements
Track Severe Weather on mobile